sensor_id;sensor_type;location;lat;lon;timestamp;pressure;altitude;pressure_sealevel;temperature;humidity
42415;BME280;28058;46.344;17.786;2022-09-28T00:00:23;118336.50;;;-144.97;100.00
42415;BME280;28058;46.344;17.786;2022-09-28T00:02:50;118336.50;;;-144.97;100.00
42415;BME280;28058;46.344;17.786;2022-09-28T00:05:18;118336.50;;;-144.97;100.00
42415;BME280;28058;46.344;17.786;2022-09-28T00:07:44;118336.50;;;-144.97;100.00
42415;BME280;28058;46.344;17.786;2022-09-28T00:10:12;118336.50;;;-144.97;100.00
42415;BME280;28058;46.344;17.786;2022-09-28T00:12:39;118336.50;;;-144.97;100.00
42415;BME280;28058;46.344;17.786;2022-09-28T00:15:06;118336.50;;;-144.97;100.00
42415;BME280;28058;46.344;17.786;2022-09-28T00:17:33;118336.50;;;-144.97;100.00
42415;BME280;28058;46.344;17.786;2022-09-28T00:20:02;118336.50;;;-144.97;100.00
42415;BME280;28058;46.344;17.786;2022-09-28T00:22:30;118336.50;;;-144.97;100.00
42415;BME280;28058;46.344;17.786;2022-09-28T00:24:57;118336.50;;;-144.97;100.00
42415;BME280;28058;46.344;17.786;2022-09-28T00:27:24;118336.50;;;-144.97;100.00
42415;BME280;28058;46.344;17.786;2022-09-28T00:29:50;118336.50;;;-144.97;100.00
42415;BME280;28058;46.344;17.786;2022-09-28T00:32:17;118336.50;;;-144.97;100.00
42415;BME280;28058;46.344;17.786;2022-09-28T00:34:46;118336.50;;;-144.97;100.00
42415;BME280;28058;46.344;17.786;2022-09-28T00:37:14;118336.50;;;-144.97;100.00
42415;BME280;28058;46.344;17.786;2022-09-28T00:39:41;118336.50;;;-144.97;100.00
42415;BME280;28058;46.344;17.786;2022-09-28T00:42:20;118336.50;;;-144.97;100.00
42415;BME280;28058;46.344;17.786;2022-09-28T00:44:57;118336.50;;;-144.97;100.00
42415;BME280;28058;46.344;17.786;2022-09-28T00:50:00;118336.50;;;-144.97;100.00
42415;BME280;28058;46.344;17.786;2022-09-28T00:52:39;118336.50;;;-144.97;100.00
42415;BME280;28058;46.344;17.786;2022-09-28T00:55:12;118336.50;;;-144.97;100.00
42415;BME280;28058;46.344;17.786;2022-09-28T00:57:43;118336.50;;;-144.97;100.00
42415;BME280;28058;46.344;17.786;2022-09-28T01:00:12;118336.50;;;-144.97;100.00
42415;BME280;28058;46.344;17.786;2022-09-28T01:02:39;118336.50;;;-144.97;100.00
42415;BME280;28058;46.344;17.786;2022-09-28T01:05:07;118336.50;;;-144.97;100.00
42415;BME280;28058;46.344;17.786;2022-09-28T01:07:36;118336.50;;;-144.97;100.00
42415;BME280;28058;46.344;17.786;2022-09-28T01:10:05;118336.50;;;-144.97;100.00
42415;BME280;28058;46.344;17.786;2022-09-28T01:12:32;118336.50;;;-144.97;100.00
42415;BME280;28058;46.344;17.786;2022-09-28T01:15:00;118336.50;;;-144.97;100.00
42415;BME280;28058;46.344;17.786;2022-09-28T01:23:03;118336.50;;;-144.97;100.00
42415;BME280;28058;46.344;17.786;2022-09-28T01:26:08;118336.50;;;-144.97;100.00
42415;BME280;28058;46.344;17.786;2022-09-28T01:28:36;118336.50;;;-144.97;100.00
42415;BME280;28058;46.344;17.786;2022-09-28T01:31:11;118336.50;;;-144.97;100.00
42415;BME280;28058;46.344;17.786;2022-09-28T01:33:49;118336.50;;;-144.97;100.00
42415;BME280;28058;46.344;17.786;2022-09-28T01:36:24;118336.50;;;-144.97;100.00
42415;BME280;28058;46.344;17.786;2022-09-28T01:39:02;118336.50;;;-144.97;100.00
42415;BME280;28058;46.344;17.786;2022-09-28T01:41:33;118336.50;;;-144.97;100.00
42415;BME280;28058;46.344;17.786;2022-09-28T01:44:03;118336.50;;;-144.97;100.00
42415;BME280;28058;46.344;17.786;2022-09-28T01:46:39;118336.50;;;-144.97;100.00
42415;BME280;28058;46.344;17.786;2022-09-28T01:49:15;118336.50;;;-144.97;100.00
42415;BME280;28058;46.344;17.786;2022-09-28T01:51:56;118336.50;;;-144.97;100.00
42415;BME280;28058;46.344;17.786;2022-09-28T01:54:35;118336.50;;;-144.97;100.00
42415;BME280;28058;46.344;17.786;2022-09-28T01:59:43;118336.50;;;-144.97;100.00
42415;BME280;28058;46.344;17.786;2022-09-28T02:02:15;118336.50;;;-144.97;100.00
42415;BME280;28058;46.344;17.786;2022-09-28T02:04:50;118336.50;;;-144.97;100.00
42415;BME280;28058;46.344;17.786;2022-09-28T02:07:25;118336.50;;;-144.97;100.00
42415;BME280;28058;46.344;17.786;2022-09-28T02:10:01;118336.50;;;-144.97;100.00
42415;BME280;28058;46.344;17.786;2022-09-28T02:13:07;118336.50;;;-144.97;100.00
42415;BME280;28058;46.344;17.786;2022-09-28T02:15:59;118336.50;;;-144.97;100.00
42415;BME280;28058;46.344;17.786;2022-09-28T02:18:28;118336.50;;;-144.97;100.00
42415;BME280;28058;46.344;17.786;2022-09-28T02:21:00;118336.50;;;-144.97;100.00
42415;BME280;28058;46.344;17.786;2022-09-28T02:23:33;118336.50;;;-144.97;100.00
42415;BME280;28058;46.344;17.786;2022-09-28T02:26:05;118336.50;;;-144.97;100.00
42415;BME280;28058;46.344;17.786;2022-09-28T02:28:34;118336.50;;;-144.97;100.00
42415;BME280;28058;46.344;17.786;2022-09-28T02:31:00;118336.50;;;-144.97;100.00
42415;BME280;28058;46.344;17.786;2022-09-28T02:33:36;118336.50;;;-144.97;100.00
42415;BME280;28058;46.344;17.786;2022-09-28T02:36:04;118336.50;;;-144.97;100.00
42415;BME280;28058;46.344;17.786;2022-09-28T02:38:31;118336.50;;;-144.97;100.00
42415;BME280;28058;46.344;17.786;2022-09-28T02:41:10;118336.50;;;-144.97;100.00
42415;BME280;28058;46.344;17.786;2022-09-28T02:52:36;118336.50;;;-144.97;100.00
42415;BME280;28058;46.344;17.786;2022-09-28T03:00:44;118336.50;;;-144.97;100.00
42415;BME280;28058;46.344;17.786;2022-09-28T03:03:59;118336.50;;;-144.97;100.00
42415;BME280;28058;46.344;17.786;2022-09-28T03:06:47;118336.50;;;-144.97;100.00
42415;BME280;28058;46.344;17.786;2022-09-28T03:11:52;118336.50;;;-144.97;100.00
42415;BME280;28058;46.344;17.786;2022-09-28T03:14:21;118336.50;;;-144.97;100.00
42415;BME280;28058;46.344;17.786;2022-09-28T03:16:48;118336.50;;;-144.97;100.00
42415;BME280;28058;46.344;17.786;2022-09-28T03:19:16;118336.50;;;-144.97;100.00
42415;BME280;28058;46.344;17.786;2022-09-28T03:21:44;118336.50;;;-144.97;100.00
42415;BME280;28058;46.344;17.786;2022-09-28T03:24:11;118336.50;;;-144.97;100.00
42415;BME280;28058;46.344;17.786;2022-09-28T03:26:38;118336.50;;;-144.97;100.00
42415;BME280;28058;46.344;17.786;2022-09-28T03:29:05;118336.50;;;-144.97;100.00
42415;BME280;28058;46.344;17.786;2022-09-28T03:31:32;118336.50;;;-144.97;100.00
42415;BME280;28058;46.344;17.786;2022-09-28T03:33:59;118336.50;;;-144.97;100.00
42415;BME280;28058;46.344;17.786;2022-09-28T03:36:25;118336.50;;;-144.97;100.00
42415;BME280;28058;46.344;17.786;2022-09-28T03:38:52;118336.50;;;-144.97;100.00
42415;BME280;28058;46.344;17.786;2022-09-28T03:41:25;118336.50;;;-144.97;100.00
42415;BME280;28058;46.344;17.786;2022-09-28T03:43:53;118336.50;;;-144.97;100.00
42415;BME280;28058;46.344;17.786;2022-09-28T03:46:20;118336.50;;;-144.97;100.00
42415;BME280;28058;46.344;17.786;2022-09-28T03:48:47;118336.50;;;-144.97;100.00
42415;BME280;28058;46.344;17.786;2022-09-28T03:51:13;118336.50;;;-144.97;100.00
42415;BME280;28058;46.344;17.786;2022-09-28T03:53:40;118336.50;;;-144.97;100.00
42415;BME280;28058;46.344;17.786;2022-09-28T03:56:10;118336.50;;;-144.97;100.00
42415;BME280;28058;46.344;17.786;2022-09-28T03:58:37;118336.50;;;-144.97;100.00
42415;BME280;28058;46.344;17.786;2022-09-28T04:01:07;118336.50;;;-144.97;100.00
42415;BME280;28058;46.344;17.786;2022-09-28T04:03:41;118336.50;;;-144.97;100.00
42415;BME280;28058;46.344;17.786;2022-09-28T04:06:08;118336.50;;;-144.97;100.00
42415;BME280;28058;46.344;17.786;2022-09-28T04:08:35;118336.50;;;-144.97;100.00
42415;BME280;28058;46.344;17.786;2022-09-28T04:11:02;118336.50;;;-144.97;100.00
42415;BME280;28058;46.344;17.786;2022-09-28T04:13:29;118336.50;;;-144.97;100.00
42415;BME280;28058;46.344;17.786;2022-09-28T04:15:57;118336.50;;;-144.97;100.00
42415;BME280;28058;46.344;17.786;2022-09-28T04:18:25;118336.50;;;-144.97;100.00
42415;BME280;28058;46.344;17.786;2022-09-28T04:21:01;118336.50;;;-144.97;100.00
42415;BME280;28058;46.344;17.786;2022-09-28T04:23:35;118336.50;;;-144.97;100.00
42415;BME280;28058;46.344;17.786;2022-09-28T04:26:04;118336.50;;;-144.97;100.00
42415;BME280;28058;46.344;17.786;2022-09-28T04:28:32;118336.50;;;-144.97;100.00
42415;BME280;28058;46.344;17.786;2022-09-28T04:31:22;118336.50;;;-144.97;100.00
42415;BME280;28058;46.344;17.786;2022-09-28T04:33:50;118336.50;;;-144.97;100.00
42415;BME280;28058;46.344;17.786;2022-09-28T04:36:16;118336.50;;;-144.97;100.00
42415;BME280;28058;46.344;17.786;2022-09-28T04:38:45;118336.50;;;-144.97;100.00
42415;BME280;28058;46.344;17.786;2022-09-28T04:41:19;118336.50;;;-144.97;100.00
42415;BME280;28058;46.344;17.786;2022-09-28T04:43:48;118336.50;;;-144.97;100.00
42415;BME280;28058;46.344;17.786;2022-09-28T04:46:16;118336.50;;;-144.97;100.00
42415;BME280;28058;46.344;17.786;2022-09-28T04:48:43;118336.50;;;-144.97;100.00
42415;BME280;28058;46.344;17.786;2022-09-28T04:51:10;118336.50;;;-144.97;100.00
42415;BME280;28058;46.344;17.786;2022-09-28T04:53:37;118336.50;;;-144.97;100.00
42415;BME280;28058;46.344;17.786;2022-09-28T04:56:06;118336.50;;;-144.97;100.00
42415;BME280;28058;46.344;17.786;2022-09-28T04:58:34;118336.50;;;-144.97;100.00
42415;BME280;28058;46.344;17.786;2022-09-28T05:01:05;118336.50;;;-144.97;100.00
42415;BME280;28058;46.344;17.786;2022-09-28T05:03:33;118336.50;;;-144.97;100.00
42415;BME280;28058;46.344;17.786;2022-09-28T05:05:59;118336.50;;;-144.97;100.00
42415;BME280;28058;46.344;17.786;2022-09-28T05:08:27;118336.50;;;-144.97;100.00
42415;BME280;28058;46.344;17.786;2022-09-28T05:10:59;118336.50;;;-144.97;100.00
42415;BME280;28058;46.344;17.786;2022-09-28T05:13:28;118336.50;;;-144.97;100.00
42415;BME280;28058;46.344;17.786;2022-09-28T05:15:57;118336.50;;;-144.97;100.00
42415;BME280;28058;46.344;17.786;2022-09-28T05:18:30;118336.50;;;-144.97;100.00
42415;BME280;28058;46.344;17.786;2022-09-28T05:20:57;118336.50;;;-144.97;100.00
42415;BME280;28058;46.344;17.786;2022-09-28T05:23:24;118336.50;;;-144.97;100.00
42415;BME280;28058;46.344;17.786;2022-09-28T05:25:51;118336.50;;;-144.97;100.00
42415;BME280;28058;46.344;17.786;2022-09-28T05:28:26;118336.50;;;-144.97;100.00
42415;BME280;28058;46.344;17.786;2022-09-28T05:31:02;118336.50;;;-144.97;100.00
42415;BME280;28058;46.344;17.786;2022-09-28T05:33:31;118336.50;;;-144.97;100.00
42415;BME280;28058;46.344;17.786;2022-09-28T05:35:58;118336.50;;;-144.97;100.00
42415;BME280;28058;46.344;17.786;2022-09-28T05:38:27;118336.50;;;-144.97;100.00
42415;BME280;28058;46.344;17.786;2022-09-28T05:40:55;118336.50;;;-144.97;100.00
42415;BME280;28058;46.344;17.786;2022-09-28T05:43:22;118336.50;;;-144.97;100.00
42415;BME280;28058;46.344;17.786;2022-09-28T05:45:49;118336.50;;;-144.97;100.00
42415;BME280;28058;46.344;17.786;2022-09-28T05:48:21;118336.50;;;-144.97;100.00
42415;BME280;28058;46.344;17.786;2022-09-28T05:50:51;118336.50;;;-144.97;100.00
42415;BME280;28058;46.344;17.786;2022-09-28T05:53:18;118336.50;;;-144.97;100.00
42415;BME280;28058;46.344;17.786;2022-09-28T05:55:45;118336.50;;;-144.97;100.00
42415;BME280;28058;46.344;17.786;2022-09-28T05:58:13;118336.50;;;-144.97;100.00
42415;BME280;28058;46.344;17.786;2022-09-28T06:00:40;118336.50;;;-144.97;100.00
42415;BME280;28058;46.344;17.786;2022-09-28T06:03:09;118336.50;;;-144.97;100.00
42415;BME280;28058;46.344;17.786;2022-09-28T06:05:37;118336.50;;;-144.97;100.00
42415;BME280;28058;46.344;17.786;2022-09-28T06:08:09;118336.50;;;-144.97;100.00
42415;BME280;28058;46.344;17.786;2022-09-28T06:10:36;118336.50;;;-144.97;100.00
42415;BME280;28058;46.344;17.786;2022-09-28T06:13:04;118336.50;;;-144.97;100.00
42415;BME280;28058;46.344;17.786;2022-09-28T06:15:33;118336.50;;;-144.97;100.00
42415;BME280;28058;46.344;17.786;2022-09-28T06:18:05;118336.50;;;-144.97;100.00
42415;BME280;28058;46.344;17.786;2022-09-28T06:20:34;118336.50;;;-144.97;100.00
42415;BME280;28058;46.344;17.786;2022-09-28T06:23:02;118336.50;;;-144.97;100.00
42415;BME280;28058;46.344;17.786;2022-09-28T06:25:28;118336.50;;;-144.97;100.00
42415;BME280;28058;46.344;17.786;2022-09-28T06:28:02;118336.50;;;-144.97;100.00
42415;BME280;28058;46.344;17.786;2022-09-28T06:30:32;118336.50;;;-144.97;100.00
42415;BME280;28058;46.344;17.786;2022-09-28T06:33:00;118336.50;;;-144.97;100.00
42415;BME280;28058;46.344;17.786;2022-09-28T06:35:29;118336.50;;;-144.97;100.00
42415;BME280;28058;46.344;17.786;2022-09-28T06:37:57;118336.50;;;-144.97;100.00
42415;BME280;28058;46.344;17.786;2022-09-28T06:40:25;118336.50;;;-144.97;100.00
42415;BME280;28058;46.344;17.786;2022-09-28T06:42:56;118336.50;;;-144.97;100.00
42415;BME280;28058;46.344;17.786;2022-09-28T06:45:25;118336.50;;;-144.97;100.00
42415;BME280;28058;46.344;17.786;2022-09-28T06:47:59;118336.50;;;-144.97;100.00
42415;BME280;28058;46.344;17.786;2022-09-28T06:50:29;118336.50;;;-144.97;95.20
42415;BME280;28058;46.344;17.786;2022-09-28T06:52:59;118336.50;;;-144.97;75.66
42415;BME280;28058;46.344;17.786;2022-09-28T06:55:27;118336.50;;;-144.97;71.46
42415;BME280;28058;46.344;17.786;2022-09-28T06:58:02;118336.50;;;-144.97;67.04
42415;BME280;28058;46.344;17.786;2022-09-28T07:00:32;118336.50;;;-144.97;58.53
42415;BME280;28058;46.344;17.786;2022-09-28T07:03:04;118336.50;;;-144.97;58.78
42415;BME280;28058;46.344;17.786;2022-09-28T07:05:34;118336.50;;;-144.97;63.04
42415;BME280;28058;46.344;17.786;2022-09-28T07:08:05;118336.50;;;-144.97;67.59
42415;BME280;28058;46.344;17.786;2022-09-28T07:10:32;118336.50;;;-144.97;69.48
42415;BME280;28058;46.344;17.786;2022-09-28T07:13:02;118336.50;;;-144.97;69.55
42415;BME280;28058;46.344;17.786;2022-09-28T07:15:31;118336.50;;;-144.97;74.55
42415;BME280;28058;46.344;17.786;2022-09-28T07:18:00;118336.50;;;-144.97;69.55
42415;BME280;28058;46.344;17.786;2022-09-28T07:20:30;118336.50;;;-144.97;63.15
42415;BME280;28058;46.344;17.786;2022-09-28T07:23:09;118336.50;;;-144.97;57.99
42415;BME280;28058;46.344;17.786;2022-09-28T07:25:49;118336.50;;;-144.97;53.30
42415;BME280;28058;46.344;17.786;2022-09-28T07:28:17;118336.50;;;-144.97;52.64
42415;BME280;28058;46.344;17.786;2022-09-28T07:30:46;118336.50;;;-144.97;50.57
42415;BME280;28058;46.344;17.786;2022-09-28T07:33:14;118336.50;;;-144.97;49.61
42415;BME280;28058;46.344;17.786;2022-09-28T07:35:49;118336.50;;;-144.97;45.18
42415;BME280;28058;46.344;17.786;2022-09-28T07:38:16;118336.50;;;-144.97;45.46
42415;BME280;28058;46.344;17.786;2022-09-28T07:40:42;118336.50;;;-144.97;44.18
42415;BME280;28058;46.344;17.786;2022-09-28T07:43:28;118336.50;;;-144.97;53.27
42415;BME280;28058;46.344;17.786;2022-09-28T07:45:54;118336.50;;;-144.97;49.82
42415;BME280;28058;46.344;17.786;2022-09-28T07:48:21;118336.50;;;-144.97;55.23
42415;BME280;28058;46.344;17.786;2022-09-28T07:50:53;118336.50;;;-144.97;55.17
42415;BME280;28058;46.344;17.786;2022-09-28T07:53:22;118336.50;;;-144.97;51.90
42415;BME280;28058;46.344;17.786;2022-09-28T07:55:57;118336.50;;;-144.97;50.62
42415;BME280;28058;46.344;17.786;2022-09-28T07:58:27;118336.50;;;-144.97;50.62
42415;BME280;28058;46.344;17.786;2022-09-28T08:00:54;118336.50;;;-144.97;52.73
42415;BME280;28058;46.344;17.786;2022-09-28T08:03:21;118336.50;;;-144.97;50.00
42415;BME280;28058;46.344;17.786;2022-09-28T08:05:48;118336.50;;;-144.97;48.78
42415;BME280;28058;46.344;17.786;2022-09-28T08:08:15;118336.50;;;-144.97;46.29
42415;BME280;28058;46.344;17.786;2022-09-28T08:10:42;118336.50;;;-144.97;44.80
42415;BME280;28058;46.344;17.786;2022-09-28T08:13:13;118336.50;;;-144.97;43.43
42415;BME280;28058;46.344;17.786;2022-09-28T08:15:41;118336.50;;;-144.97;41.80
42415;BME280;28058;46.344;17.786;2022-09-28T08:18:08;118336.50;;;-144.97;45.24
42415;BME280;28058;46.344;17.786;2022-09-28T08:20:35;118336.50;;;-144.97;44.76
42415;BME280;28058;46.344;17.786;2022-09-28T08:23:20;118336.50;;;-144.97;49.57
42415;BME280;28058;46.344;17.786;2022-09-28T08:25:50;118336.50;;;-144.97;45.39
42415;BME280;28058;46.344;17.786;2022-09-28T08:28:21;118336.50;;;-144.97;47.21
42415;BME280;28058;46.344;17.786;2022-09-28T08:30:48;118336.50;;;-144.97;49.45
42415;BME280;28058;46.344;17.786;2022-09-28T08:33:17;118336.50;;;-144.97;50.30
42415;BME280;28058;46.344;17.786;2022-09-28T08:35:44;118336.50;;;-144.97;48.94
42415;BME280;28058;46.344;17.786;2022-09-28T08:38:12;118336.50;;;-144.97;50.06
42415;BME280;28058;46.344;17.786;2022-09-28T08:45:59;118336.50;;;-144.97;45.63
42415;BME280;28058;46.344;17.786;2022-09-28T08:48:32;118336.50;;;-144.97;42.82
42415;BME280;28058;46.344;17.786;2022-09-28T08:56:46;118336.50;;;-144.97;42.11
42415;BME280;28058;46.344;17.786;2022-09-28T08:59:21;118336.50;;;-144.97;46.31
42415;BME280;28058;46.344;17.786;2022-09-28T09:01:55;118336.50;;;-144.97;48.02
42415;BME280;28058;46.344;17.786;2022-09-28T09:04:23;118336.50;;;-144.97;47.12
42415;BME280;28058;46.344;17.786;2022-09-28T09:26:19;118336.50;;;-144.97;54.55
42415;BME280;28058;46.344;17.786;2022-09-28T09:40:01;118336.50;;;-144.97;54.49
42415;BME280;28058;46.344;17.786;2022-09-28T09:48:29;118336.50;;;-144.97;53.75
42415;BME280;28058;46.344;17.786;2022-09-28T09:51:04;118336.50;;;-144.97;52.22
42415;BME280;28058;46.344;17.786;2022-09-28T09:53:36;118336.50;;;-144.97;51.60
42415;BME280;28058;46.344;17.786;2022-09-28T09:56:16;118336.50;;;-144.97;50.55
42415;BME280;28058;46.344;17.786;2022-09-28T09:58:50;118336.50;;;-144.97;53.44
42415;BME280;28058;46.344;17.786;2022-09-28T10:01:24;118336.50;;;-144.97;52.33
42415;BME280;28058;46.344;17.786;2022-09-28T10:03:55;118336.50;;;-144.97;56.08
42415;BME280;28058;46.344;17.786;2022-09-28T10:06:30;118336.50;;;-144.97;57.58
42415;BME280;28058;46.344;17.786;2022-09-28T10:09:21;118336.50;;;-144.97;57.15
42415;BME280;28058;46.344;17.786;2022-09-28T10:11:49;118336.50;;;-144.97;57.50
42415;BME280;28058;46.344;17.786;2022-09-28T10:14:19;118336.50;;;-144.97;59.80
42415;BME280;28058;46.344;17.786;2022-09-28T10:16:52;118336.50;;;-144.97;60.58
42415;BME280;28058;46.344;17.786;2022-09-28T10:19:29;118336.50;;;-144.97;59.28
42415;BME280;28058;46.344;17.786;2022-09-28T10:21:56;118336.50;;;-144.97;58.68
42415;BME280;28058;46.344;17.786;2022-09-28T10:24:33;118336.50;;;-144.97;60.64
42415;BME280;28058;46.344;17.786;2022-09-28T10:27:06;118336.50;;;-144.97;60.22
42415;BME280;28058;46.344;17.786;2022-09-28T10:29:55;118336.50;;;-144.97;59.97
42415;BME280;28058;46.344;17.786;2022-09-28T10:32:25;118336.50;;;-144.97;60.57
42415;BME280;28058;46.344;17.786;2022-09-28T10:35:19;118336.50;;;-144.97;59.95
42415;BME280;28058;46.344;17.786;2022-09-28T10:37:58;118336.50;;;-144.97;59.48
42415;BME280;28058;46.344;17.786;2022-09-28T10:40:44;118336.50;;;-144.97;60.47
42415;BME280;28058;46.344;17.786;2022-09-28T10:45:41;118336.50;;;-144.97;57.73
42415;BME280;28058;46.344;17.786;2022-09-28T10:48:57;118336.50;;;-144.97;58.85
42415;BME280;28058;46.344;17.786;2022-09-28T10:51:49;118336.50;;;-144.97;56.87
42415;BME280;28058;46.344;17.786;2022-09-28T10:54:18;118336.50;;;-144.97;57.47
42415;BME280;28058;46.344;17.786;2022-09-28T10:56:46;118336.50;;;-144.97;55.50
42415;BME280;28058;46.344;17.786;2022-09-28T11:02:25;118336.50;;;-144.97;55.88
42415;BME280;28058;46.344;17.786;2022-09-28T11:05:01;118336.50;;;-144.97;56.07
42415;BME280;28058;46.344;17.786;2022-09-28T11:07:31;118336.50;;;-144.97;57.47
42415;BME280;28058;46.344;17.786;2022-09-28T11:10:00;118336.50;;;-144.97;58.40
42415;BME280;28058;46.344;17.786;2022-09-28T11:12:37;118336.50;;;-144.97;58.26
42415;BME280;28058;46.344;17.786;2022-09-28T11:15:19;118336.50;;;-144.97;55.57
42415;BME280;28058;46.344;17.786;2022-09-28T11:17:47;118336.50;;;-144.97;58.70
42415;BME280;28058;46.344;17.786;2022-09-28T11:22:59;118336.50;;;-144.97;59.86
42415;BME280;28058;46.344;17.786;2022-09-28T11:25:40;118336.50;;;-144.97;59.71
42415;BME280;28058;46.344;17.786;2022-09-28T11:28:18;118336.50;;;-144.97;58.78
42415;BME280;28058;46.344;17.786;2022-09-28T11:30:50;118336.50;;;-144.97;60.27
42415;BME280;28058;46.344;17.786;2022-09-28T11:33:24;118336.50;;;-144.97;60.58
42415;BME280;28058;46.344;17.786;2022-09-28T11:41:31;118336.50;;;-144.97;62.04
42415;BME280;28058;46.344;17.786;2022-09-28T11:53:13;118336.50;;;-144.97;65.62
42415;BME280;28058;46.344;17.786;2022-09-28T11:58:54;118336.50;;;-144.97;63.93
42415;BME280;28058;46.344;17.786;2022-09-28T12:04:11;118336.50;;;-144.97;66.29
42415;BME280;28058;46.344;17.786;2022-09-28T12:06:46;118336.50;;;-144.97;66.72
42415;BME280;28058;46.344;17.786;2022-09-28T12:09:24;118336.50;;;-144.97;65.45
42415;BME280;28058;46.344;17.786;2022-09-28T12:11:57;118336.50;;;-144.97;65.01
42415;BME280;28058;46.344;17.786;2022-09-28T12:14:31;118336.50;;;-144.97;64.79
42415;BME280;28058;46.344;17.786;2022-09-28T12:17:17;118336.50;;;-144.97;65.13
42415;BME280;28058;46.344;17.786;2022-09-28T12:20:23;118336.50;;;-144.97;63.77
42415;BME280;28058;46.344;17.786;2022-09-28T12:25:27;118336.50;;;-144.97;63.28
42415;BME280;28058;46.344;17.786;2022-09-28T12:27:58;118336.50;;;-144.97;66.35
42415;BME280;28058;46.344;17.786;2022-09-28T12:30:31;118336.50;;;-144.97;66.81
42415;BME280;28058;46.344;17.786;2022-09-28T12:33:07;118336.50;;;-144.97;65.83
42415;BME280;28058;46.344;17.786;2022-09-28T12:42:11;118336.50;;;-144.97;67.22
42415;BME280;28058;46.344;17.786;2022-09-28T12:56:17;118336.50;;;-144.97;66.18
42415;BME280;28058;46.344;17.786;2022-09-28T12:59:14;118336.50;;;-144.97;65.29
42415;BME280;28058;46.344;17.786;2022-09-28T13:10:39;118336.50;;;-144.97;67.45
42415;BME280;28058;46.344;17.786;2022-09-28T13:19:27;118336.50;;;-144.97;66.76
42415;BME280;28058;46.344;17.786;2022-09-28T13:24:40;118336.50;;;-144.97;69.43
42415;BME280;28058;46.344;17.786;2022-09-28T13:27:14;118336.50;;;-144.97;69.86
42415;BME280;28058;46.344;17.786;2022-09-28T13:29:45;118336.50;;;-144.97;71.39
42415;BME280;28058;46.344;17.786;2022-09-28T13:32:17;118336.50;;;-144.97;71.13
42415;BME280;28058;46.344;17.786;2022-09-28T13:34:47;118336.50;;;-144.97;72.24
42415;BME280;28058;46.344;17.786;2022-09-28T13:39:47;118336.50;;;-144.97;72.00
42415;BME280;28058;46.344;17.786;2022-09-28T13:48:02;118336.50;;;-144.97;72.46
42415;BME280;28058;46.344;17.786;2022-09-28T13:56:33;118336.50;;;-144.97;73.45
42415;BME280;28058;46.344;17.786;2022-09-28T13:59:15;118336.50;;;-144.97;73.85
42415;BME280;28058;46.344;17.786;2022-09-28T14:02:01;118336.50;;;-144.97;73.31
42415;BME280;28058;46.344;17.786;2022-09-28T14:04:59;118336.50;;;-144.97;75.26
42415;BME280;28058;46.344;17.786;2022-09-28T14:10:21;118336.50;;;-144.97;77.10
42415;BME280;28058;46.344;17.786;2022-09-28T14:12:51;118336.50;;;-144.97;76.72
42415;BME280;28058;46.344;17.786;2022-09-28T14:26:58;118336.50;;;-144.97;79.73
42415;BME280;28058;46.344;17.786;2022-09-28T14:29:31;118336.50;;;-144.97;80.66
42415;BME280;28058;46.344;17.786;2022-09-28T14:34:39;118336.50;;;-144.97;82.76
42415;BME280;28058;46.344;17.786;2022-09-28T14:37:17;118336.50;;;-144.97;82.17
42415;BME280;28058;46.344;17.786;2022-09-28T14:40:19;118336.50;;;-144.97;83.86
42415;BME280;28058;46.344;17.786;2022-09-28T14:43:35;118336.50;;;-144.97;83.16
42415;BME280;28058;46.344;17.786;2022-09-28T14:48:46;118336.50;;;-144.97;83.01
42415;BME280;28058;46.344;17.786;2022-09-28T14:53:56;118336.50;;;-144.97;84.64
42415;BME280;28058;46.344;17.786;2022-09-28T14:56:32;118336.50;;;-144.97;85.83
42415;BME280;28058;46.344;17.786;2022-09-28T14:58:59;118336.50;;;-144.97;85.92
42415;BME280;28058;46.344;17.786;2022-09-28T15:01:26;118336.50;;;-144.97;85.89
42415;BME280;28058;46.344;17.786;2022-09-28T15:03:55;118336.50;;;-144.97;85.30
42415;BME280;28058;46.344;17.786;2022-09-28T15:06:24;118336.50;;;-144.97;87.70
42415;BME280;28058;46.344;17.786;2022-09-28T15:08:54;118336.50;;;-144.97;88.32
42415;BME280;28058;46.344;17.786;2022-09-28T15:11:23;118336.50;;;-144.97;89.40
42415;BME280;28058;46.344;17.786;2022-09-28T15:14:04;118336.50;;;-144.97;89.69
42415;BME280;28058;46.344;17.786;2022-09-28T15:16:32;118336.50;;;-144.97;91.19
42415;BME280;28058;46.344;17.786;2022-09-28T15:19:11;118336.50;;;-144.97;91.15
42415;BME280;28058;46.344;17.786;2022-09-28T15:21:44;118336.50;;;-144.97;91.58
42415;BME280;28058;46.344;17.786;2022-09-28T15:24:30;118336.50;;;-144.97;91.24
42415;BME280;28058;46.344;17.786;2022-09-28T15:26:58;118336.50;;;-144.97;89.47
42415;BME280;28058;46.344;17.786;2022-09-28T15:29:26;118336.50;;;-144.97;90.98
42415;BME280;28058;46.344;17.786;2022-09-28T15:31:59;118336.50;;;-144.97;91.74
42415;BME280;28058;46.344;17.786;2022-09-28T15:34:28;118336.50;;;-144.97;92.26
42415;BME280;28058;46.344;17.786;2022-09-28T15:37:16;118336.50;;;-144.97;91.98
42415;BME280;28058;46.344;17.786;2022-09-28T15:39:44;118336.50;;;-144.97;92.45